Jack Guidry — WDF2422 — position and weather

sailwx.info

Track history (hours):
 
Tides and Currents Weather Stations Pressure Air Temp Water Temp Dewpoint Dewpoint Depression Visibility Wind Speed Wind Dir Waves Ship Positions

Jack Guidry

Owner: Enterprise Marine Services, LLC, San Antonio, TX. More information available from US FCC via Universal Licensing System and Coast Guard Vessel Documentation Center.

Last reported at 2017-Dec-09 21:21 UTC. Time now 2017-Dec-12 20:07 UTC.
Position N 29°44' W 095°03'.

Length 22 m; draft 3 m.

Type: . MMSI: 367003430.

Date/timePositionNaut miles runAvg speedWind from/ knotsBaromVisibWave heightAir tempDewpointWater temp
2017-Dec-09 21:21N 29°44' W 095°03'2 5.3
2017-Dec-09 20:58N 29°42' W 095°01'3 5.9
2017-Dec-09 20:30N 29°41' W 094°59'3 6.7
2017-Dec-09 20:00N 29°37' W 094°58'4 7.2
2017-Dec-09 19:30N 29°34' W 094°55'  
2017-Dec-03 09:56N 29°38' W 094°18'0 0.0
2017-Dec-03 09:00N 29°38' W 094°18'7 1.0
2017-Dec-03 02:04N 29°35' W 094°25'0 4.5
2017-Dec-03 02:00N 29°35' W 094°25'2 4.4
2017-Dec-03 01:27N 29°34' W 094°27'25 3.2
2017-Dec-02 17:37N 29°35' W 094°56'1 5.5
2017-Dec-02 17:27N 29°36' W 094°57'3 6.8
2017-Dec-02 17:00N 29°39' W 094°58'4 6.8
2017-Dec-02 16:27N 29°42' W 095°01'12 0.4
2017-Dec-01 09:08N 29°43' W 095°15'0 0.1
2017-Dec-01 07:50N 29°43' W 095°15'2 4.8
2017-Dec-01 07:28N 29°43' W 095°13'3 5.2
2017-Dec-01 06:49N 29°44' W 095°09'2 6.3
2017-Dec-01 06:30N 29°44' W 095°07'  
Track history (hours):
 
Tides and Currents Weather Stations Pressure Air Temp Water Temp Dewpoint Dewpoint Depression Visibility Wind Speed Wind Dir Waves Ship Positions

Jack Guidry

Owner: Enterprise Marine Services, LLC, San Antonio, TX. More information available from US FCC via Universal Licensing System and Coast Guard Vessel Documentation Center.

Last reported at 2017-Dec-09 21:21 UTC. Time now 2017-Dec-12 20:07 UTC.
Position N 29°44' W 095°03'.

Length 22 m; draft 3 m.

Type: . MMSI: 367003430.

Date/timePositionNaut miles runAvg speedWind from/ knotsBaromVisibWave heightAir tempDewpointWater temp
2017-Dec-09 21:21N 29°44' W 095°03'2 5.3
2017-Dec-09 20:58N 29°42' W 095°01'3 5.9
2017-Dec-09 20:30N 29°41' W 094°59'3 6.7
2017-Dec-09 20:00N 29°37' W 094°58'4 7.2
2017-Dec-09 19:30N 29°34' W 094°55'  
2017-Dec-03 09:56N 29°38' W 094°18'0 0.0
2017-Dec-03 09:00N 29°38' W 094°18'7 1.0
2017-Dec-03 02:04N 29°35' W 094°25'0 4.5
2017-Dec-03 02:00N 29°35' W 094°25'2 4.4
2017-Dec-03 01:27N 29°34' W 094°27'25 3.2
2017-Dec-02 17:37N 29°35' W 094°56'1 5.5
2017-Dec-02 17:27N 29°36' W 094°57'3 6.8
2017-Dec-02 17:00N 29°39' W 094°58'4 6.8
2017-Dec-02 16:27N 29°42' W 095°01'12 0.4
2017-Dec-01 09:08N 29°43' W 095°15'0 0.1
2017-Dec-01 07:50N 29°43' W 095°15'2 4.8
2017-Dec-01 07:28N 29°43' W 095°13'3 5.2
2017-Dec-01 06:49N 29°44' W 095°09'2 6.3
2017-Dec-01 06:30N 29°44' W 095°07'  

Dump ship's entire track history